sensor_id;sensor_type;location;lat;lon;timestamp;P1;durP1;ratioP1;P2;durP2;ratioP2
28862;SDS011;15994;51.796;13.006;2023-02-17T00:03:36;30.48;;;20.55;;
28862;SDS011;15994;51.796;13.006;2023-02-17T00:06:09;29.73;;;20.10;;
28862;SDS011;15994;51.796;13.006;2023-02-17T00:08:36;29.15;;;20.38;;
28862;SDS011;15994;51.796;13.006;2023-02-17T00:11:03;28.42;;;19.75;;
28862;SDS011;15994;51.796;13.006;2023-02-17T00:13:30;30.67;;;20.67;;
28862;SDS011;15994;51.796;13.006;2023-02-17T00:15:57;30.55;;;20.88;;
28862;SDS011;15994;51.796;13.006;2023-02-17T00:18:24;29.52;;;21.25;;
28862;SDS011;15994;51.796;13.006;2023-02-17T00:20:51;31.45;;;20.20;;
28862;SDS011;15994;51.796;13.006;2023-02-17T00:23:17;30.45;;;20.17;;
28862;SDS011;15994;51.796;13.006;2023-02-17T00:25:44;26.95;;;19.48;;
28862;SDS011;15994;51.796;13.006;2023-02-17T00:28:10;30.17;;;20.20;;
28862;SDS011;15994;51.796;13.006;2023-02-17T00:30:37;29.20;;;20.98;;
28862;SDS011;15994;51.796;13.006;2023-02-17T00:33:04;29.40;;;20.58;;
28862;SDS011;15994;51.796;13.006;2023-02-17T00:35:31;28.88;;;20.42;;
28862;SDS011;15994;51.796;13.006;2023-02-17T00:37:57;28.63;;;19.55;;
28862;SDS011;15994;51.796;13.006;2023-02-17T00:40:24;29.52;;;20.67;;
28862;SDS011;15994;51.796;13.006;2023-02-17T00:42:50;30.40;;;20.85;;
28862;SDS011;15994;51.796;13.006;2023-02-17T00:45:18;31.25;;;21.13;;
28862;SDS011;15994;51.796;13.006;2023-02-17T00:47:45;30.15;;;21.10;;
28862;SDS011;15994;51.796;13.006;2023-02-17T00:50:11;29.92;;;21.75;;
28862;SDS011;15994;51.796;13.006;2023-02-17T00:52:38;30.25;;;22.00;;
28862;SDS011;15994;51.796;13.006;2023-02-17T00:55:05;33.75;;;21.80;;
28862;SDS011;15994;51.796;13.006;2023-02-17T00:57:31;33.40;;;21.92;;
28862;SDS011;15994;51.796;13.006;2023-02-17T00:59:58;32.20;;;22.20;;
28862;SDS011;15994;51.796;13.006;2023-02-17T01:02:24;31.95;;;21.63;;
28862;SDS011;15994;51.796;13.006;2023-02-17T01:04:51;32.20;;;22.95;;
28862;SDS011;15994;51.796;13.006;2023-02-17T01:07:18;30.73;;;22.60;;
28862;SDS011;15994;51.796;13.006;2023-02-17T01:09:44;32.17;;;22.85;;
28862;SDS011;15994;51.796;13.006;2023-02-17T01:12:11;29.55;;;21.35;;
28862;SDS011;15994;51.796;13.006;2023-02-17T01:14:38;34.08;;;22.38;;
28862;SDS011;15994;51.796;13.006;2023-02-17T01:17:04;29.63;;;21.65;;
28862;SDS011;15994;51.796;13.006;2023-02-17T01:19:31;30.30;;;22.02;;
28862;SDS011;15994;51.796;13.006;2023-02-17T01:21:57;30.63;;;22.25;;
28862;SDS011;15994;51.796;13.006;2023-02-17T01:24:24;34.55;;;23.65;;
28862;SDS011;15994;51.796;13.006;2023-02-17T01:26:50;34.47;;;23.65;;
28862;SDS011;15994;51.796;13.006;2023-02-17T01:29:17;35.03;;;23.30;;
28862;SDS011;15994;51.796;13.006;2023-02-17T01:31:43;33.08;;;23.52;;
28862;SDS011;15994;51.796;13.006;2023-02-17T01:34:10;33.67;;;23.00;;
28862;SDS011;15994;51.796;13.006;2023-02-17T01:36:37;35.92;;;23.70;;
28862;SDS011;15994;51.796;13.006;2023-02-17T01:39:03;33.15;;;24.05;;
28862;SDS011;15994;51.796;13.006;2023-02-17T01:41:30;33.17;;;23.77;;
28862;SDS011;15994;51.796;13.006;2023-02-17T01:46:38;37.38;;;24.30;;
28862;SDS011;15994;51.796;13.006;2023-02-17T01:49:11;36.22;;;24.05;;
28862;SDS011;15994;51.796;13.006;2023-02-17T01:52:00;32.55;;;22.70;;
28862;SDS011;15994;51.796;13.006;2023-02-17T01:54:44;34.08;;;22.75;;
28862;SDS011;15994;51.796;13.006;2023-02-17T01:57:15;31.92;;;22.55;;
28862;SDS011;15994;51.796;13.006;2023-02-17T01:59:44;35.05;;;24.05;;
28862;SDS011;15994;51.796;13.006;2023-02-17T02:02:11;30.77;;;22.40;;
28862;SDS011;15994;51.796;13.006;2023-02-17T02:04:39;35.35;;;22.98;;
28862;SDS011;15994;51.796;13.006;2023-02-17T02:07:19;34.33;;;23.52;;
28862;SDS011;15994;51.796;13.006;2023-02-17T02:09:52;35.45;;;23.02;;
28862;SDS011;15994;51.796;13.006;2023-02-17T02:12:30;33.60;;;22.23;;
28862;SDS011;15994;51.796;13.006;2023-02-17T02:14:59;35.00;;;23.65;;
28862;SDS011;15994;51.796;13.006;2023-02-17T02:26:38;33.15;;;22.83;;
28862;SDS011;15994;51.796;13.006;2023-02-17T02:29:24;34.75;;;23.40;;
28862;SDS011;15994;51.796;13.006;2023-02-17T02:35:00;33.10;;;23.30;;
28862;SDS011;15994;51.796;13.006;2023-02-17T02:37:35;36.53;;;24.73;;
28862;SDS011;15994;51.796;13.006;2023-02-17T02:40:09;37.15;;;24.63;;
28862;SDS011;15994;51.796;13.006;2023-02-17T02:42:37;35.97;;;24.50;;
28862;SDS011;15994;51.796;13.006;2023-02-17T02:45:06;35.15;;;25.02;;
28862;SDS011;15994;51.796;13.006;2023-02-17T02:47:40;36.97;;;25.38;;
28862;SDS011;15994;51.796;13.006;2023-02-17T02:50:13;34.25;;;23.85;;
28862;SDS011;15994;51.796;13.006;2023-02-17T02:58:07;39.40;;;25.95;;
28862;SDS011;15994;51.796;13.006;2023-02-17T03:00:40;39.22;;;26.70;;
28862;SDS011;15994;51.796;13.006;2023-02-17T03:06:05;43.47;;;27.85;;
28862;SDS011;15994;51.796;13.006;2023-02-17T03:08:40;40.53;;;27.77;;
28862;SDS011;15994;51.796;13.006;2023-02-17T03:11:21;42.15;;;28.52;;
28862;SDS011;15994;51.796;13.006;2023-02-17T03:14:18;42.47;;;28.23;;
28862;SDS011;15994;51.796;13.006;2023-02-17T03:16:44;42.65;;;28.02;;
28862;SDS011;15994;51.796;13.006;2023-02-17T03:19:11;42.03;;;27.95;;
28862;SDS011;15994;51.796;13.006;2023-02-17T03:21:54;41.80;;;27.98;;
28862;SDS011;15994;51.796;13.006;2023-02-17T03:24:24;42.35;;;27.80;;
28862;SDS011;15994;51.796;13.006;2023-02-17T03:26:51;40.10;;;27.70;;
28862;SDS011;15994;51.796;13.006;2023-02-17T03:29:17;42.50;;;28.05;;
28862;SDS011;15994;51.796;13.006;2023-02-17T03:31:44;43.28;;;28.75;;
28862;SDS011;15994;51.796;13.006;2023-02-17T03:34:10;42.30;;;28.00;;
28862;SDS011;15994;51.796;13.006;2023-02-17T03:36:38;41.58;;;27.52;;
28862;SDS011;15994;51.796;13.006;2023-02-17T03:39:04;47.55;;;28.10;;
28862;SDS011;15994;51.796;13.006;2023-02-17T03:41:31;44.90;;;29.52;;
28862;SDS011;15994;51.796;13.006;2023-02-17T03:43:57;41.28;;;28.80;;
28862;SDS011;15994;51.796;13.006;2023-02-17T03:46:24;42.55;;;29.20;;
28862;SDS011;15994;51.796;13.006;2023-02-17T03:48:50;41.03;;;28.23;;
28862;SDS011;15994;51.796;13.006;2023-02-17T03:51:21;45.28;;;28.52;;
28862;SDS011;15994;51.796;13.006;2023-02-17T03:53:49;44.47;;;29.00;;
28862;SDS011;15994;51.796;13.006;2023-02-17T03:56:17;40.25;;;28.75;;
28862;SDS011;15994;51.796;13.006;2023-02-17T03:58:44;44.53;;;28.80;;
28862;SDS011;15994;51.796;13.006;2023-02-17T04:01:10;41.47;;;29.58;;
28862;SDS011;15994;51.796;13.006;2023-02-17T04:03:37;39.83;;;27.63;;
28862;SDS011;15994;51.796;13.006;2023-02-17T04:06:05;44.20;;;28.90;;
28862;SDS011;15994;51.796;13.006;2023-02-17T04:08:32;41.30;;;28.45;;
28862;SDS011;15994;51.796;13.006;2023-02-17T04:10:59;40.58;;;28.60;;
28862;SDS011;15994;51.796;13.006;2023-02-17T04:13:27;38.90;;;28.75;;
28862;SDS011;15994;51.796;13.006;2023-02-17T04:15:54;38.15;;;27.02;;
28862;SDS011;15994;51.796;13.006;2023-02-17T04:18:20;41.72;;;28.38;;
28862;SDS011;15994;51.796;13.006;2023-02-17T04:20:48;41.28;;;27.73;;
28862;SDS011;15994;51.796;13.006;2023-02-17T04:23:15;42.10;;;28.23;;
28862;SDS011;15994;51.796;13.006;2023-02-17T04:25:42;39.88;;;27.85;;
28862;SDS011;15994;51.796;13.006;2023-02-17T04:28:09;38.33;;;27.63;;
28862;SDS011;15994;51.796;13.006;2023-02-17T04:30:37;38.75;;;26.77;;
28862;SDS011;15994;51.796;13.006;2023-02-17T04:33:03;39.30;;;27.38;;
28862;SDS011;15994;51.796;13.006;2023-02-17T04:35:30;38.60;;;27.17;;
28862;SDS011;15994;51.796;13.006;2023-02-17T04:37:57;37.60;;;26.25;;
28862;SDS011;15994;51.796;13.006;2023-02-17T04:40:23;37.33;;;26.48;;
28862;SDS011;15994;51.796;13.006;2023-02-17T04:42:50;38.65;;;26.15;;
28862;SDS011;15994;51.796;13.006;2023-02-17T04:45:16;39.08;;;27.20;;
28862;SDS011;15994;51.796;13.006;2023-02-17T04:47:43;37.05;;;25.15;;
28862;SDS011;15994;51.796;13.006;2023-02-17T04:50:10;36.00;;;25.42;;
28862;SDS011;15994;51.796;13.006;2023-02-17T04:52:37;34.17;;;25.52;;
28862;SDS011;15994;51.796;13.006;2023-02-17T04:55:04;35.83;;;24.55;;
28862;SDS011;15994;51.796;13.006;2023-02-17T04:57:31;35.60;;;25.60;;
28862;SDS011;15994;51.796;13.006;2023-02-17T04:59:58;35.88;;;25.67;;
28862;SDS011;15994;51.796;13.006;2023-02-17T05:02:25;36.78;;;26.10;;
28862;SDS011;15994;51.796;13.006;2023-02-17T05:04:52;40.03;;;24.77;;
28862;SDS011;15994;51.796;13.006;2023-02-17T05:07:19;35.85;;;24.17;;
28862;SDS011;15994;51.796;13.006;2023-02-17T05:09:46;34.97;;;24.23;;
28862;SDS011;15994;51.796;13.006;2023-02-17T05:12:13;36.17;;;24.17;;
28862;SDS011;15994;51.796;13.006;2023-02-17T05:14:39;32.85;;;23.90;;
28862;SDS011;15994;51.796;13.006;2023-02-17T05:17:06;38.03;;;25.52;;
28862;SDS011;15994;51.796;13.006;2023-02-17T05:19:32;34.72;;;24.38;;
28862;SDS011;15994;51.796;13.006;2023-02-17T05:21:59;34.30;;;24.67;;
28862;SDS011;15994;51.796;13.006;2023-02-17T05:24:25;35.47;;;24.88;;
28862;SDS011;15994;51.796;13.006;2023-02-17T05:26:52;34.55;;;24.48;;
28862;SDS011;15994;51.796;13.006;2023-02-17T05:29:18;32.22;;;23.77;;
28862;SDS011;15994;51.796;13.006;2023-02-17T05:31:45;34.85;;;24.42;;
28862;SDS011;15994;51.796;13.006;2023-02-17T05:34:11;34.53;;;24.75;;
28862;SDS011;15994;51.796;13.006;2023-02-17T05:36:38;33.08;;;23.98;;
28862;SDS011;15994;51.796;13.006;2023-02-17T05:39:06;32.22;;;23.77;;
28862;SDS011;15994;51.796;13.006;2023-02-17T05:41:32;30.20;;;22.92;;
28862;SDS011;15994;51.796;13.006;2023-02-17T05:43:59;33.53;;;23.63;;
28862;SDS011;15994;51.796;13.006;2023-02-17T05:46:26;30.60;;;22.92;;
28862;SDS011;15994;51.796;13.006;2023-02-17T05:48:52;31.40;;;23.48;;
28862;SDS011;15994;51.796;13.006;2023-02-17T05:51:19;30.98;;;23.23;;
28862;SDS011;15994;51.796;13.006;2023-02-17T05:53:45;30.83;;;22.98;;
28862;SDS011;15994;51.796;13.006;2023-02-17T05:56:12;31.15;;;22.83;;
28862;SDS011;15994;51.796;13.006;2023-02-17T05:58:38;32.20;;;22.52;;
28862;SDS011;15994;51.796;13.006;2023-02-17T06:01:08;29.85;;;23.48;;
28862;SDS011;15994;51.796;13.006;2023-02-17T06:03:36;31.45;;;22.20;;
28862;SDS011;15994;51.796;13.006;2023-02-17T06:06:03;27.77;;;21.08;;
28862;SDS011;15994;51.796;13.006;2023-02-17T06:08:31;25.80;;;20.30;;
28862;SDS011;15994;51.796;13.006;2023-02-17T06:10:58;28.65;;;21.83;;
28862;SDS011;15994;51.796;13.006;2023-02-17T06:13:24;30.10;;;21.58;;
28862;SDS011;15994;51.796;13.006;2023-02-17T06:15:51;28.52;;;20.52;;
28862;SDS011;15994;51.796;13.006;2023-02-17T06:18:17;28.92;;;21.55;;
28862;SDS011;15994;51.796;13.006;2023-02-17T06:20:44;26.33;;;20.58;;
28862;SDS011;15994;51.796;13.006;2023-02-17T06:23:11;26.70;;;19.58;;
28862;SDS011;15994;51.796;13.006;2023-02-17T06:25:37;27.10;;;19.90;;
28862;SDS011;15994;51.796;13.006;2023-02-17T06:28:04;24.98;;;19.40;;
28862;SDS011;15994;51.796;13.006;2023-02-17T06:30:30;25.10;;;19.50;;
28862;SDS011;15994;51.796;13.006;2023-02-17T06:32:57;23.27;;;18.65;;
28862;SDS011;15994;51.796;13.006;2023-02-17T06:35:24;24.42;;;18.67;;
28862;SDS011;15994;51.796;13.006;2023-02-17T06:37:50;24.02;;;16.50;;
28862;SDS011;15994;51.796;13.006;2023-02-17T06:40:17;21.70;;;16.63;;
28862;SDS011;15994;51.796;13.006;2023-02-17T06:42:44;22.00;;;17.13;;
28862;SDS011;15994;51.796;13.006;2023-02-17T06:45:10;22.73;;;16.25;;
28862;SDS011;15994;51.796;13.006;2023-02-17T06:47:37;18.58;;;14.73;;
28862;SDS011;15994;51.796;13.006;2023-02-17T06:50:04;18.52;;;15.00;;
28862;SDS011;15994;51.796;13.006;2023-02-17T06:52:31;20.00;;;15.20;;
28862;SDS011;15994;51.796;13.006;2023-02-17T06:54:57;20.02;;;14.32;;
28862;SDS011;15994;51.796;13.006;2023-02-17T06:57:24;18.58;;;13.38;;
28862;SDS011;15994;51.796;13.006;2023-02-17T06:59:50;17.08;;;13.32;;
28862;SDS011;15994;51.796;13.006;2023-02-17T07:02:17;15.43;;;12.75;;
28862;SDS011;15994;51.796;13.006;2023-02-17T07:04:44;15.90;;;12.90;;
28862;SDS011;15994;51.796;13.006;2023-02-17T07:07:10;16.98;;;12.75;;
28862;SDS011;15994;51.796;13.006;2023-02-17T07:09:37;14.80;;;12.52;;
28862;SDS011;15994;51.796;13.006;2023-02-17T07:12:04;14.80;;;12.27;;
28862;SDS011;15994;51.796;13.006;2023-02-17T07:14:31;15.20;;;12.55;;
28862;SDS011;15994;51.796;13.006;2023-02-17T07:16:59;15.57;;;11.60;;
28862;SDS011;15994;51.796;13.006;2023-02-17T07:19:25;15.18;;;12.02;;
28862;SDS011;15994;51.796;13.006;2023-02-17T07:21:52;13.57;;;11.65;;
28862;SDS011;15994;51.796;13.006;2023-02-17T07:24:19;14.98;;;11.80;;
28862;SDS011;15994;51.796;13.006;2023-02-17T07:26:45;15.95;;;11.75;;
28862;SDS011;15994;51.796;13.006;2023-02-17T07:29:12;15.10;;;11.30;;
28862;SDS011;15994;51.796;13.006;2023-02-17T07:31:38;13.32;;;11.55;;
28862;SDS011;15994;51.796;13.006;2023-02-17T07:34:05;14.15;;;11.82;;
28862;SDS011;15994;51.796;13.006;2023-02-17T07:36:31;13.50;;;11.10;;
28862;SDS011;15994;51.796;13.006;2023-02-17T07:38:58;14.90;;;11.98;;
28862;SDS011;15994;51.796;13.006;2023-02-17T07:41:24;15.38;;;11.63;;
28862;SDS011;15994;51.796;13.006;2023-02-17T07:43:53;14.05;;;11.23;;
28862;SDS011;15994;51.796;13.006;2023-02-17T07:46:21;15.27;;;11.98;;
28862;SDS011;15994;51.796;13.006;2023-02-17T07:48:48;14.35;;;12.00;;
28862;SDS011;15994;51.796;13.006;2023-02-17T07:51:16;15.57;;;12.07;;
28862;SDS011;15994;51.796;13.006;2023-02-17T07:53:44;16.73;;;12.20;;
28862;SDS011;15994;51.796;13.006;2023-02-17T07:56:12;15.35;;;11.60;;
28862;SDS011;15994;51.796;13.006;2023-02-17T07:58:40;17.33;;;12.00;;
28862;SDS011;15994;51.796;13.006;2023-02-17T08:01:15;15.50;;;11.63;;
28862;SDS011;15994;51.796;13.006;2023-02-17T08:03:47;15.98;;;11.70;;
28862;SDS011;15994;51.796;13.006;2023-02-17T08:06:17;13.77;;;11.48;;
28862;SDS011;15994;51.796;13.006;2023-02-17T08:08:47;14.93;;;12.15;;
28862;SDS011;15994;51.796;13.006;2023-02-17T08:11:43;16.80;;;12.07;;
28862;SDS011;15994;51.796;13.006;2023-02-17T08:14:28;13.70;;;10.88;;
28862;SDS011;15994;51.796;13.006;2023-02-17T08:16:57;15.25;;;12.15;;
28862;SDS011;15994;51.796;13.006;2023-02-17T08:19:24;14.70;;;11.32;;
28862;SDS011;15994;51.796;13.006;2023-02-17T08:21:51;15.63;;;11.38;;
28862;SDS011;15994;51.796;13.006;2023-02-17T08:24:18;16.08;;;11.80;;
28862;SDS011;15994;51.796;13.006;2023-02-17T08:26:45;16.83;;;12.32;;
28862;SDS011;15994;51.796;13.006;2023-02-17T08:29:12;15.73;;;11.98;;
28862;SDS011;15994;51.796;13.006;2023-02-17T08:31:39;14.77;;;11.32;;
28862;SDS011;15994;51.796;13.006;2023-02-17T08:34:06;14.90;;;12.02;;
28862;SDS011;15994;51.796;13.006;2023-02-17T08:36:34;17.27;;;11.93;;
28862;SDS011;15994;51.796;13.006;2023-02-17T08:39:02;14.30;;;11.63;;
28862;SDS011;15994;51.796;13.006;2023-02-17T08:41:32;15.38;;;12.68;;
28862;SDS011;15994;51.796;13.006;2023-02-17T08:44:00;16.60;;;12.10;;
28862;SDS011;15994;51.796;13.006;2023-02-17T08:46:29;14.70;;;12.25;;
28862;SDS011;15994;51.796;13.006;2023-02-17T08:48:56;13.90;;;11.32;;
28862;SDS011;15994;51.796;13.006;2023-02-17T08:51:23;15.48;;;12.23;;
28862;SDS011;15994;51.796;13.006;2023-02-17T08:53:53;16.88;;;13.10;;
28862;SDS011;15994;51.796;13.006;2023-02-17T08:56:21;16.70;;;11.75;;
28862;SDS011;15994;51.796;13.006;2023-02-17T08:58:48;16.52;;;12.75;;
28862;SDS011;15994;51.796;13.006;2023-02-17T09:01:16;14.15;;;11.80;;
28862;SDS011;15994;51.796;13.006;2023-02-17T09:03:43;16.50;;;12.88;;
28862;SDS011;15994;51.796;13.006;2023-02-17T09:06:10;16.63;;;12.52;;
28862;SDS011;15994;51.796;13.006;2023-02-17T09:08:37;15.25;;;11.95;;
28862;SDS011;15994;51.796;13.006;2023-02-17T09:11:05;14.88;;;11.60;;
28862;SDS011;15994;51.796;13.006;2023-02-17T09:13:32;15.35;;;11.93;;
28862;SDS011;15994;51.796;13.006;2023-02-17T09:15:59;14.20;;;12.20;;
28862;SDS011;15994;51.796;13.006;2023-02-17T09:18:26;15.48;;;11.85;;
28862;SDS011;15994;51.796;13.006;2023-02-17T09:20:53;17.02;;;12.10;;
28862;SDS011;15994;51.796;13.006;2023-02-17T09:23:20;14.48;;;11.32;;
28862;SDS011;15994;51.796;13.006;2023-02-17T09:25:46;17.20;;;12.20;;
28862;SDS011;15994;51.796;13.006;2023-02-17T09:28:13;16.23;;;11.40;;
28862;SDS011;15994;51.796;13.006;2023-02-17T09:30:39;16.20;;;11.90;;
28862;SDS011;15994;51.796;13.006;2023-02-17T09:33:07;15.10;;;10.65;;
28862;SDS011;15994;51.796;13.006;2023-02-17T09:35:33;15.75;;;12.13;;
28862;SDS011;15994;51.796;13.006;2023-02-17T09:38:02;14.15;;;11.10;;
28862;SDS011;15994;51.796;13.006;2023-02-17T09:43:12;13.75;;;10.63;;
28862;SDS011;15994;51.796;13.006;2023-02-17T09:45:43;13.25;;;10.82;;
28862;SDS011;15994;51.796;13.006;2023-02-17T09:48:14;12.27;;;9.77;;
28862;SDS011;15994;51.796;13.006;2023-02-17T09:50:50;14.43;;;10.93;;
28862;SDS011;15994;51.796;13.006;2023-02-17T09:53:29;14.43;;;10.60;;
28862;SDS011;15994;51.796;13.006;2023-02-17T09:56:07;12.63;;;9.93;;
28862;SDS011;15994;51.796;13.006;2023-02-17T09:58:40;14.35;;;10.20;;
28862;SDS011;15994;51.796;13.006;2023-02-17T10:01:20;13.13;;;9.90;;
28862;SDS011;15994;51.796;13.006;2023-02-17T10:03:55;13.30;;;9.90;;
28862;SDS011;15994;51.796;13.006;2023-02-17T10:17:09;10.77;;;8.82;;
28862;SDS011;15994;51.796;13.006;2023-02-17T10:19:38;10.30;;;8.10;;
28862;SDS011;15994;51.796;13.006;2023-02-17T10:22:19;11.80;;;8.75;;
28862;SDS011;15994;51.796;13.006;2023-02-17T10:24:47;10.48;;;8.23;;
28862;SDS011;15994;51.796;13.006;2023-02-17T10:29:48;10.10;;;7.97;;
28862;SDS011;15994;51.796;13.006;2023-02-17T10:32:43;15.18;;;8.40;;
28862;SDS011;15994;51.796;13.006;2023-02-17T10:35:22;12.18;;;7.25;;
28862;SDS011;15994;51.796;13.006;2023-02-17T10:40:41;9.20;;;7.13;;
28862;SDS011;15994;51.796;13.006;2023-02-17T10:43:11;10.07;;;7.43;;
28862;SDS011;15994;51.796;13.006;2023-02-17T10:45:44;10.00;;;6.70;;
28862;SDS011;15994;51.796;13.006;2023-02-17T10:48:23;7.65;;;6.38;;
28862;SDS011;15994;51.796;13.006;2023-02-17T10:51:06;8.50;;;6.25;;
28862;SDS011;15994;51.796;13.006;2023-02-17T10:53:33;8.15;;;6.10;;
28862;SDS011;15994;51.796;13.006;2023-02-17T10:56:05;8.13;;;6.00;;
28862;SDS011;15994;51.796;13.006;2023-02-17T11:01:04;7.28;;;6.05;;
28862;SDS011;15994;51.796;13.006;2023-02-17T11:03:32;8.57;;;5.93;;
28862;SDS011;15994;51.796;13.006;2023-02-17T11:06:01;6.97;;;5.82;;
28862;SDS011;15994;51.796;13.006;2023-02-17T11:08:36;9.07;;;6.00;;
28862;SDS011;15994;51.796;13.006;2023-02-17T11:11:18;6.95;;;5.60;;
28862;SDS011;15994;51.796;13.006;2023-02-17T11:14:00;7.68;;;5.90;;
28862;SDS011;15994;51.796;13.006;2023-02-17T11:16:43;8.18;;;5.75;;
28862;SDS011;15994;51.796;13.006;2023-02-17T11:19:22;8.40;;;6.13;;
28862;SDS011;15994;51.796;13.006;2023-02-17T11:21:55;5.82;;;5.07;;
28862;SDS011;15994;51.796;13.006;2023-02-17T11:24:24;7.70;;;5.25;;
28862;SDS011;15994;51.796;13.006;2023-02-17T11:26:58;8.18;;;5.07;;
28862;SDS011;15994;51.796;13.006;2023-02-17T11:29:30;6.25;;;5.18;;
28862;SDS011;15994;51.796;13.006;2023-02-17T11:34:33;6.63;;;5.32;;
28862;SDS011;15994;51.796;13.006;2023-02-17T11:37:19;6.53;;;4.95;;
28862;SDS011;15994;51.796;13.006;2023-02-17T11:39:49;6.55;;;4.95;;
28862;SDS011;15994;51.796;13.006;2023-02-17T11:42:21;6.93;;;4.93;;
28862;SDS011;15994;51.796;13.006;2023-02-17T11:44:50;7.10;;;5.18;;
28862;SDS011;15994;51.796;13.006;2023-02-17T11:50:02;6.53;;;5.22;;
28862;SDS011;15994;51.796;13.006;2023-02-17T11:58:16;6.55;;;4.93;;
28862;SDS011;15994;51.796;13.006;2023-02-17T12:06:36;6.03;;;4.33;;
28862;SDS011;15994;51.796;13.006;2023-02-17T12:09:29;5.85;;;4.20;;
28862;SDS011;15994;51.796;13.006;2023-02-17T12:20:49;7.00;;;4.13;;
28862;SDS011;15994;51.796;13.006;2023-02-17T12:23:34;7.03;;;4.38;;
28862;SDS011;15994;51.796;13.006;2023-02-17T12:34:32;5.43;;;4.28;;
28862;SDS011;15994;51.796;13.006;2023-02-17T12:37:00;7.40;;;4.70;;
28862;SDS011;15994;51.796;13.006;2023-02-17T12:39:31;5.53;;;3.95;;
28862;SDS011;15994;51.796;13.006;2023-02-17T12:42:17;5.07;;;4.05;;
28862;SDS011;15994;51.796;13.006;2023-02-17T12:44:53;6.68;;;4.70;;
28862;SDS011;15994;51.796;13.006;2023-02-17T12:50:04;9.70;;;4.63;;
28862;SDS011;15994;51.796;13.006;2023-02-17T12:52:41;6.75;;;4.30;;
28862;SDS011;15994;51.796;13.006;2023-02-17T12:57:48;6.28;;;4.47;;
28862;SDS011;15994;51.796;13.006;2023-02-17T13:00:22;6.35;;;4.43;;
28862;SDS011;15994;51.796;13.006;2023-02-17T13:02:59;6.32;;;4.32;;
28862;SDS011;15994;51.796;13.006;2023-02-17T13:05:33;6.88;;;4.32;;
28862;SDS011;15994;51.796;13.006;2023-02-17T13:08:05;5.47;;;3.90;;
28862;SDS011;15994;51.796;13.006;2023-02-17T13:10:43;5.07;;;3.97;;
28862;SDS011;15994;51.796;13.006;2023-02-17T13:13:11;4.88;;;3.65;;
28862;SDS011;15994;51.796;13.006;2023-02-17T13:16:00;4.75;;;3.45;;
28862;SDS011;15994;51.796;13.006;2023-02-17T13:23:59;4.85;;;3.63;;
28862;SDS011;15994;51.796;13.006;2023-02-17T13:26:29;4.65;;;3.30;;
28862;SDS011;15994;51.796;13.006;2023-02-17T13:31:46;4.40;;;3.25;;
28862;SDS011;15994;51.796;13.006;2023-02-17T13:34:33;4.32;;;3.38;;
28862;SDS011;15994;51.796;13.006;2023-02-17T13:39:44;3.90;;;3.10;;
28862;SDS011;15994;51.796;13.006;2023-02-17T13:42:28;5.00;;;3.30;;
28862;SDS011;15994;51.796;13.006;2023-02-17T13:45:09;4.28;;;3.10;;
28862;SDS011;15994;51.796;13.006;2023-02-17T13:47:38;4.25;;;3.03;;
28862;SDS011;15994;51.796;13.006;2023-02-17T13:50:06;5.90;;;2.78;;
28862;SDS011;15994;51.796;13.006;2023-02-17T13:52:51;4.88;;;2.75;;
28862;SDS011;15994;51.796;13.006;2023-02-17T13:55:18;4.97;;;2.70;;
28862;SDS011;15994;51.796;13.006;2023-02-17T13:57:51;3.47;;;2.65;;
28862;SDS011;15994;51.796;13.006;2023-02-17T14:00:30;4.70;;;2.30;;
28862;SDS011;15994;51.796;13.006;2023-02-17T14:02:58;4.38;;;2.60;;
28862;SDS011;15994;51.796;13.006;2023-02-17T14:05:46;3.88;;;2.30;;
28862;SDS011;15994;51.796;13.006;2023-02-17T14:10:50;3.15;;;2.20;;
28862;SDS011;15994;51.796;13.006;2023-02-17T14:13:17;3.05;;;2.00;;
28862;SDS011;15994;51.796;13.006;2023-02-17T14:15:48;3.45;;;2.30;;
28862;SDS011;15994;51.796;13.006;2023-02-17T14:18:28;3.05;;;2.00;;
28862;SDS011;15994;51.796;13.006;2023-02-17T14:23:47;3.78;;;2.05;;
28862;SDS011;15994;51.796;13.006;2023-02-17T14:26:49;4.03;;;2.40;;
28862;SDS011;15994;51.796;13.006;2023-02-17T14:29:12;3.73;;;2.23;;
28862;SDS011;15994;51.796;13.006;2023-02-17T14:31:41;3.10;;;2.30;;
28862;SDS011;15994;51.796;13.006;2023-02-17T14:34:34;4.20;;;2.50;;
28862;SDS011;15994;51.796;13.006;2023-02-17T14:37:14;4.68;;;2.63;;
28862;SDS011;15994;51.796;13.006;2023-02-17T14:39:46;3.42;;;2.22;;
28862;SDS011;15994;51.796;13.006;2023-02-17T14:42:12;5.90;;;2.67;;
28862;SDS011;15994;51.796;13.006;2023-02-17T14:44:39;4.20;;;2.45;;
28862;SDS011;15994;51.796;13.006;2023-02-17T14:47:06;5.03;;;2.60;;
28862;SDS011;15994;51.796;13.006;2023-02-17T14:49:33;4.18;;;2.40;;
28862;SDS011;15994;51.796;13.006;2023-02-17T14:52:00;6.05;;;3.03;;
28862;SDS011;15994;51.796;13.006;2023-02-17T14:54:40;4.22;;;2.55;;
28862;SDS011;15994;51.796;13.006;2023-02-17T14:57:09;6.30;;;3.00;;
28862;SDS011;15994;51.796;13.006;2023-02-17T14:59:37;4.78;;;2.53;;
28862;SDS011;15994;51.796;13.006;2023-02-17T15:02:11;4.05;;;2.67;;
28862;SDS011;15994;51.796;13.006;2023-02-17T15:04:45;5.13;;;2.65;;
28862;SDS011;15994;51.796;13.006;2023-02-17T15:07:12;5.60;;;2.75;;
28862;SDS011;15994;51.796;13.006;2023-02-17T15:09:40;4.40;;;2.53;;
28862;SDS011;15994;51.796;13.006;2023-02-17T15:12:13;5.35;;;2.63;;
28862;SDS011;15994;51.796;13.006;2023-02-17T15:14:42;4.13;;;2.75;;
28862;SDS011;15994;51.796;13.006;2023-02-17T15:17:10;4.25;;;2.42;;
28862;SDS011;15994;51.796;13.006;2023-02-17T15:19:37;4.13;;;2.50;;
28862;SDS011;15994;51.796;13.006;2023-02-17T15:22:04;3.63;;;2.53;;
28862;SDS011;15994;51.796;13.006;2023-02-17T15:24:32;5.40;;;2.60;;
28862;SDS011;15994;51.796;13.006;2023-02-17T15:27:01;3.00;;;2.30;;
28862;SDS011;15994;51.796;13.006;2023-02-17T15:29:28;5.00;;;2.67;;
28862;SDS011;15994;51.796;13.006;2023-02-17T15:31:56;4.03;;;2.17;;
28862;SDS011;15994;51.796;13.006;2023-02-17T15:34:33;2.92;;;2.15;;
28862;SDS011;15994;51.796;13.006;2023-02-17T15:37:01;3.55;;;2.40;;
28862;SDS011;15994;51.796;13.006;2023-02-17T15:39:27;4.90;;;2.83;;
28862;SDS011;15994;51.796;13.006;2023-02-17T15:41:54;3.38;;;2.40;;
28862;SDS011;15994;51.796;13.006;2023-02-17T15:44:33;4.18;;;2.58;;
28862;SDS011;15994;51.796;13.006;2023-02-17T15:47:08;3.35;;;2.22;;
28862;SDS011;15994;51.796;13.006;2023-02-17T15:49:38;6.32;;;2.80;;
28862;SDS011;15994;51.796;13.006;2023-02-17T15:52:08;4.00;;;2.60;;
28862;SDS011;15994;51.796;13.006;2023-02-17T15:54:38;4.53;;;2.53;;
28862;SDS011;15994;51.796;13.006;2023-02-17T15:57:14;5.07;;;2.63;;
28862;SDS011;15994;51.796;13.006;2023-02-17T15:59:48;4.88;;;3.45;;
28862;SDS011;15994;51.796;13.006;2023-02-17T16:02:19;4.47;;;3.30;;
28862;SDS011;15994;51.796;13.006;2023-02-17T16:04:47;5.22;;;4.00;;
28862;SDS011;15994;51.796;13.006;2023-02-17T16:07:15;6.65;;;3.90;;
28862;SDS011;15994;51.796;13.006;2023-02-17T16:09:42;7.22;;;4.22;;
28862;SDS011;15994;51.796;13.006;2023-02-17T16:12:14;8.60;;;5.15;;
28862;SDS011;15994;51.796;13.006;2023-02-17T16:14:50;8.07;;;4.90;;